Time;durP1;ratioP1;P1;durP2;ratioP2;P2;SDS_P1;SDS_P2;PMS_P1;PMS_P2;Temp;Humidity;BMP_temperature;BMP_pressure;BME280_temperature;BME280_humidity;BME280_pressure;Samples;Min_cycle;Max_cycle;Signal;HPM_P1;HPM_P2
2022/03/31 00:02:34;;;;;;;4.10;2.67;;;;;;;20.96;73.79;96700.16;10438998;28;20376;-68
2022/03/31 00:07:35;;;;;;;2.97;2.30;;;;;;;20.86;75.46;96700.44;10441925;28;20061;-67
2022/03/31 00:12:35;;;;;;;5.10;2.42;;;;;;;20.83;75.78;96696.56;10456529;28;20052;-68
2022/03/31 00:17:36;;;;;;;5.63;2.63;;;;;;;20.84;75.24;96689.16;10431899;28;20045;-68
2022/03/31 00:22:37;;;;;;;4.07;2.42;;;;;;;20.82;75.39;96686.09;10460231;28;20049;-68
2022/03/31 00:27:38;;;;;;;3.90;2.53;;;;;;;20.79;75.12;96682.28;10454591;28;20045;-68
2022/03/31 00:32:41;;;;;;;2.35;2.10;;;;;;;20.77;75.43;96676.50;10446788;28;20135;-68
2022/03/31 00:37:42;;;;;;;;;;;;;;;20.78;75.09;96675.31;10463778;28;20045;-68
2022/03/31 00:42:45;;;;;;;3.63;2.42;;;;;;;20.74;75.53;96667.19;10463621;28;20371;-68
2022/03/31 00:47:47;;;;;;;3.33;2.20;;;;;;;20.72;75.33;96666.09;10446948;28;20433;-69
2022/03/31 00:52:47;;;;;;;2.13;1.90;;;;;;;20.69;76.03;96658.78;10451123;28;20049;-68
2022/03/31 00:57:55;;;;;;;3.92;2.30;;;;;;;20.65;75.90;96660.81;10435640;28;20053;-69
2022/03/31 01:02:55;;;;;;;3.10;2.25;;;;;;;20.63;75.86;96649.59;10450165;28;20139;-67
2022/03/31 01:07:56;;;;;;;3.05;2.22;;;;;;;20.60;75.83;96647.72;10722171;23;20306;-69
2022/03/31 01:12:56;;;;;;;2.70;2.13;;;;;;;20.58;75.84;96644.69;10356862;28;20050;-68
2022/03/31 01:17:58;;;;;;;3.47;2.20;;;;;;;20.55;76.21;96643.56;10368513;28;20053;-68
2022/03/31 01:23:00;;;;;;;2.08;1.83;;;;;;;20.53;76.11;96634.28;10373240;28;20049;-68
2022/03/31 01:28:01;;;;;;;3.47;2.00;;;;;;;20.52;76.12;96636.25;10364999;28;20049;-70
2022/03/31 01:33:01;;;;;;;2.63;2.03;;;;;;;20.50;76.15;96629.69;10375539;28;20551;-68
2022/03/31 01:38:02;;;;;;;2.78;1.90;;;;;;;20.49;76.36;96623.47;10373705;28;20622;-67
2022/03/31 01:43:03;;;;;;;3.78;1.98;;;;;;;20.49;76.12;96615.31;10366185;28;20049;-69
2022/03/31 01:48:04;;;;;;;3.03;1.85;;;;;;;20.50;75.67;96619.56;10381074;28;20497;-68
2022/03/31 01:53:05;;;;;;;2.10;1.70;;;;;;;20.47;75.86;96614.94;10378165;28;20061;-68
2022/03/31 01:58:05;;;;;;;2.92;1.95;;;;;;;20.46;76.09;96616.13;10381342;28;20097;-68
2022/03/31 02:03:06;;;;;;;3.13;1.77;;;;;;;20.43;76.27;96614.28;10373009;28;20069;-67
2022/03/31 02:08:06;;;;;;;2.50;1.80;;;;;;;20.41;76.16;96606.50;10367371;28;20068;-67
2022/03/31 02:13:08;;;;;;;2.05;1.80;;;;;;;20.39;76.24;96600.72;10374233;28;20049;-67
2022/03/31 02:18:09;;;;;;;2.67;1.88;;;;;;;20.40;76.60;96607.69;10383135;28;20112;-67
2022/03/31 02:23:10;;;;;;;2.53;1.65;;;;;;;20.38;75.93;96590.22;10376744;28;20096;-68
2022/03/31 02:28:12;;;;;;;2.03;1.70;;;;;;;20.37;75.68;96583.25;10371919;28;20039;-68
2022/03/31 02:33:13;;;;;;;2.40;1.70;;;;;;;20.36;75.92;96577.03;10373836;28;20049;-68
2022/03/31 02:38:14;;;;;;;2.17;1.55;;;;;;;20.34;76.23;96576.72;10380710;28;20046;-67
2022/03/31 02:43:16;;;;;;;2.10;1.70;;;;;;;20.35;75.87;96570.06;10378643;28;20129;-67
2022/03/31 02:48:16;;;;;;;3.27;1.80;;;;;;;20.33;76.35;96571.69;10384326;28;20050;-67
2022/03/31 02:58:36;;;;;;;1.77;1.48;;;;;;;20.32;76.43;96562.75;10382762;28;20728;-68
2022/03/31 03:03:37;;;;;;;2.13;1.50;;;;;;;20.33;76.20;96558.84;10388359;28;20050;-68
2022/03/31 03:08:37;;;;;;;1.90;1.70;;;;;;;20.31;76.34;96549.56;10381507;28;20060;-67
2022/03/31 03:13:38;;;;;;;1.98;1.50;;;;;;;20.31;76.40;96555.00;10373677;28;20424;-71
2022/03/31 03:18:39;;;;;;;1.80;1.30;;;;;;;20.30;76.29;96539.84;10373660;28;20050;-68
2022/03/31 03:23:40;;;;;;;1.92;1.60;;;;;;;20.29;76.51;96528.19;10382302;28;20058;-68
2022/03/31 03:28:41;;;;;;;2.83;1.60;;;;;;;20.28;75.73;96525.88;10382714;28;20076;-69
2022/03/31 03:33:41;;;;;;;2.25;1.60;;;;;;;20.27;75.97;96518.91;10382347;28;20050;-69
2022/03/31 03:38:43;;;;;;;1.67;1.58;;;;;;;20.26;75.94;96518.16;10378492;28;20056;-69
2022/03/31 03:43:43;;;;;;;1.60;1.45;;;;;;;20.26;75.73;96517.38;10376124;28;20057;-68
2022/03/31 03:48:44;;;;;;;2.15;1.55;;;;;;;20.24;76.03;96512.38;10381021;28;20386;-68
2022/03/31 03:53:45;;;;;;;1.50;1.40;;;;;;;20.25;75.46;96503.00;10376326;28;20546;-68
2022/03/31 03:58:45;;;;;;;2.20;1.60;;;;;;;20.24;75.88;96495.25;10375283;28;20053;-68
2022/03/31 04:03:45;;;;;;;1.50;1.40;;;;;;;20.22;76.20;96498.41;10374365;28;20046;-71
2022/03/31 04:08:46;;;;;;;1.57;1.40;;;;;;;20.22;76.21;96506.59;10380092;28;20061;-67
2022/03/31 04:13:46;;;;;;;1.88;1.40;;;;;;;20.20;75.98;96505.47;10378449;28;20308;-69
2022/03/31 04:18:47;;;;;;;2.05;1.23;;;;;;;20.20;76.25;96506.22;10376557;28;20100;-68
2022/03/31 04:23:47;;;;;;;2.22;1.50;;;;;;;20.19;76.22;96496.53;10371807;28;20076;-68
2022/03/31 04:28:48;;;;;;;1.60;1.50;;;;;;;20.20;76.45;96497.28;10377021;28;20104;-66
2022/03/31 04:33:49;;;;;;;2.03;1.60;;;;;;;20.20;76.35;96489.13;10378370;28;20071;-66
2022/03/31 04:38:49;;;;;;;1.83;1.50;;;;;;;20.20;75.87;96484.44;10369955;28;20061;-66
2022/03/31 04:43:51;;;;;;;2.80;1.42;;;;;;;20.22;76.03;96486.75;10375340;28;20054;-66
2022/03/31 04:48:52;;;;;;;3.42;1.45;;;;;;;20.21;75.47;96482.47;10374531;28;20054;-70
2022/03/31 04:53:52;;;;;;;4.40;1.60;;;;;;;20.20;75.70;96481.72;10387452;28;20085;-66
2022/03/31 04:58:53;;;;;;;2.95;1.30;;;;;;;20.21;75.34;96486.00;10373867;28;20046;-67
2022/03/31 05:03:56;;;;;;;2.33;1.65;;;;;;;20.17;75.83;96488.78;10364269;28;20057;-65
2022/03/31 05:08:56;;;;;;;1.67;1.40;;;;;;;20.15;75.85;96480.28;10374396;28;20055;-66
2022/03/31 05:13:57;;;;;;;1.90;1.67;;;;;;;20.14;75.82;96483.44;10380223;28;20042;-66
2022/03/31 05:18:57;;;;;;;2.20;1.70;;;;;;;20.13;75.93;96493.59;10369274;28;20325;-67
2022/03/31 05:23:58;;;;;;;1.95;1.70;;;;;;;20.12;75.60;96502.19;10379861;28;20042;-67
2022/03/31 05:28:58;;;;;;;3.35;2.10;;;;;;;20.11;75.53;96500.63;10384176;28;20132;-67
2022/03/31 05:33:58;;;;;;;3.10;2.13;;;;;;;20.11;75.31;96498.66;10384339;28;20076;-67
2022/03/31 05:38:59;;;;;;;3.88;2.30;;;;;;;20.10;75.61;96501.81;10367959;28;20539;-67
2022/03/31 05:44:00;;;;;;;3.22;2.10;;;;;;;20.08;75.31;96496.81;10368871;28;20050;-66
2022/03/31 05:49:03;;;;;;;3.03;1.92;;;;;;;20.10;75.66;96482.75;10367128;28;20119;-68
2022/03/31 05:54:04;;;;;;;2.20;1.70;;;;;;;20.08;75.61;96490.59;10367553;28;20448;-67
2022/03/31 05:59:05;;;;;;;3.90;2.30;;;;;;;20.07;76.02;96494.53;10368751;28;20104;-67
2022/03/31 06:04:05;;;;;;;6.47;2.40;;;;;;;20.09;76.36;96497.56;10368897;28;20050;-67
2022/03/31 06:09:05;;;;;;;4.28;2.45;;;;;;;20.06;76.15;96493.75;10364232;28;20102;-66
2022/03/31 06:14:06;;;;;;;3.25;2.20;;;;;;;20.04;76.13;96487.22;10375902;28;20072;-66
2022/03/31 06:19:08;;;;;;;3.38;2.20;;;;;;;20.06;75.79;96493.00;10367564;28;20062;-66
2022/03/31 06:24:10;;;;;;;3.42;2.60;;;;;;;20.06;75.44;96493.00;10366804;28;20065;-68
2022/03/31 06:29:10;;;;;;;2.85;2.20;;;;;;;20.04;75.43;96487.22;10374948;28;20470;-66
2022/03/31 06:34:11;;;;;;;4.20;2.40;;;;;;;20.04;75.69;96490.72;10369786;28;20046;-65
2022/03/31 06:39:13;;;;;;;3.17;2.17;;;;;;;20.04;75.17;96493.44;10363943;28;20141;-67
2022/03/31 06:44:15;;;;;;;2.63;2.20;;;;;;;20.07;76.95;96494.53;10373256;28;20038;-65
2022/03/31 06:49:16;;;;;;;5.78;2.60;;;;;;;20.10;77.92;96480.81;10373232;28;20050;-66
2022/03/31 06:54:18;;;;;;;3.00;2.42;;;;;;;20.16;78.57;96481.06;10378512;28;20092;-65
2022/03/31 06:59:22;;;;;;;2.53;1.92;;;;;;;20.14;78.79;96486.19;10372197;28;20049;-67
2022/03/31 07:04:22;;;;;;;10.85;5.80;;;;;;;20.44;72.58;96482.28;10357040;28;20087;-77
2022/03/31 07:09:23;;;;;;;8.85;7.13;;;;;;;20.84;68.00;96490.09;10347797;28;20042;-76
2022/03/31 07:14:24;;;;;;;11.05;7.72;;;;;;;20.95;63.50;96485.88;10349306;28;20531;-74
2022/03/31 07:19:24;;;;;;;10.98;8.20;;;;;;;21.15;62.31;96490.38;10344378;28;20049;-74
2022/03/31 07:24:24;;;;;;;10.63;8.55;;;;;;;21.30;59.15;96483.28;10350230;28;20401;-76
2022/03/31 07:29:25;;;;;;;9.43;7.45;;;;;;;21.38;58.47;96481.09;10350771;28;20603;-75
2022/03/31 07:34:26;;;;;;;9.48;7.95;;;;;;;21.58;57.14;96490.59;10350323;28;20157;-77
2022/03/31 07:39:27;;;;;;;13.18;9.32;;;;;;;21.70;55.78;96486.31;10364952;28;20532;-74
2022/03/31 07:44:27;;;;;;;11.35;8.80;;;;;;;21.92;54.91;96477.41;10371763;28;20050;-74
2022/03/31 07:49:27;;;;;;;10.73;8.43;;;;;;;21.95;53.04;96471.84;10365219;28;20042;-73
2022/03/31 07:54:29;;;;;;;11.48;10.27;;;;;;;22.03;51.78;96481.28;10370639;28;20129;-78
2022/03/31 07:59:33;;;;;;;16.45;8.98;;;;;;;22.11;51.17;96479.88;10371560;28;20085;-75
2022/03/31 08:04:34;;;;;;;10.55;9.13;;;;;;;22.20;50.92;96481.16;10364814;28;20054;-72
2022/03/31 08:09:34;;;;;;;11.57;9.05;;;;;;;22.16;52.36;96466.88;10356136;28;20065;-74
2022/03/31 08:14:35;;;;;;;14.57;11.27;;;;;;;22.16;49.20;96470.38;10361483;28;20516;-77
2022/03/31 08:19:35;;;;;;;10.20;8.13;;;;;;;22.27;51.14;96464.50;10350718;28;20062;-73
2022/03/31 08:24:36;;;;;;;15.95;9.10;;;;;;;22.37;50.44;96461.41;10354369;28;20293;-78
2022/03/31 08:29:37;;;;;;;9.30;7.75;;;;;;;22.36;50.06;96456.38;10352224;28;20049;-74
2022/03/31 08:34:37;;;;;;;10.20;9.07;;;;;;;22.46;49.29;96462.66;10355840;28;20077;-74
2022/03/31 08:39:38;;;;;;;12.88;10.77;;;;;;;22.18;47.19;96457.00;10360110;28;20054;-73
2022/03/31 08:44:39;;;;;;;16.10;11.35;;;;;;;22.21;46.31;96455.34;10347515;28;20544;-74
2022/03/31 08:49:40;;;;;;;13.38;11.32;;;;;;;22.20;46.21;96456.56;10352219;28;20550;-74
2022/03/31 08:54:41;;;;;;;30.25;24.90;;;;;;;22.07;48.51;96456.63;10353820;28;20058;-83
2022/03/31 08:59:42;;;;;;;16.83;13.18;;;;;;;22.21;47.76;96449.88;10350636;28;20046;-72
2022/03/31 09:04:42;;;;;;;14.38;11.23;;;;;;;22.39;47.72;96450.78;10351141;28;20736;-73
2022/03/31 09:09:47;;;;;;;17.87;11.50;;;;;;;22.19;47.49;96442.13;10350950;28;20599;-76
2022/03/31 09:14:47;;;;;;;12.57;9.35;;;;;;;22.31;48.67;96435.88;10347600;28;20297;-73
2022/03/31 09:19:57;;;;;;;11.98;9.20;;;;;;;22.42;48.51;96452.63;10343532;28;20055;-81
2022/03/31 09:25:02;;;;;;;15.00;10.55;;;;;;;22.53;50.09;96454.97;10340690;28;20444;-76
2022/03/31 09:30:06;;;;;;;10.07;8.98;;;;;;;22.51;47.88;96448.44;10346115;28;20047;-74
2022/03/31 09:35:07;;;;;;;13.15;10.10;;;;;;;22.19;44.30;96452.31;10347324;28;20081;-75
2022/03/31 09:40:09;;;;;;;12.98;10.70;;;;;;;21.89;43.74;96435.34;10348072;28;20056;-77
2022/03/31 09:45:10;;;;;;;12.95;9.43;;;;;;;21.90;43.41;96434.13;10343344;28;20046;-79
2022/03/31 09:50:10;;;;;;;19.48;16.90;;;;;;;21.70;43.78;96433.66;10350948;28;20061;-76
2022/03/31 09:55:11;;;;;;;18.65;15.10;;;;;;;21.68;42.83;96423.19;10340341;28;20057;-75
2022/03/31 10:00:13;;;;;;;13.63;11.77;;;;;;;21.45;42.60;96416.13;10348226;28;20052;-75
2022/03/31 10:05:15;;;;;;;16.13;10.35;;;;;;;21.66;42.55;96424.81;10347288;28;20820;-75
2022/03/31 10:10:16;;;;;;;11.43;9.98;;;;;;;21.58;42.39;96422.34;10347939;28;20061;-75
2022/03/31 10:15:37;;;;;;;11.65;9.63;;;;;;;21.52;42.28;96421.38;10346758;28;20596;-76
2022/03/31 10:20:37;;;;;;;11.63;9.57;;;;;;;21.50;42.16;96417.56;10343949;28;20497;-73
2022/03/31 10:25:40;;;;;;;12.57;8.85;;;;;;;21.78;41.33;96413.88;10339841;28;20053;-71
2022/03/31 10:30:59;;;;;;;11.05;8.65;;;;;;;21.83;43.33;96413.28;10348742;28;20054;-72
2022/03/31 10:36:12;;;;;;;8.30;7.32;;;;;;;22.07;41.96;96407.44;10349452;28;20054;-73
2022/03/31 10:41:13;;;;;;;8.35;7.30;;;;;;;21.83;43.00;96394.16;10341450;28;20054;-72
2022/03/31 10:46:16;;;;;;;8.80;7.07;;;;;;;21.33;44.39;96399.78;10348267;28;20795;-72
2022/03/31 10:51:17;;;;;;;18.17;15.18;;;;;;;21.63;43.34;96396.44;10346958;28;20088;-72
2022/03/31 10:56:26;;;;;;;15.40;12.45;;;;;;;21.77;42.85;96390.50;10345064;28;20452;-72
2022/03/31 11:01:29;;;;;;;10.57;9.07;;;;;;;21.78;42.53;96385.81;10353190;28;20133;-72
2022/03/31 11:06:30;;;;;;;11.50;7.97;;;;;;;21.68;46.86;96384.97;10334924;28;20108;-71
2022/03/31 11:11:32;;;;;;;11.27;8.00;;;;;;;21.22;43.96;96379.03;10347466;28;20822;-69
2022/03/31 11:16:37;;;;;;;13.50;7.18;;;;;;;21.35;43.85;96378.28;10348955;28;20141;-72
2022/03/31 11:21:39;;;;;;;12.50;7.20;;;;;;;21.15;44.19;96378.50;10355436;28;20046;-73
2022/03/31 11:26:41;;;;;;;;;;;;;;;21.17;43.30;96374.13;10354636;28;20052;-72
2022/03/31 11:31:46;;;;;;;7.88;6.38;;;;;;;21.34;42.59;96369.34;10351858;28;20622;-75
2022/03/31 11:36:46;;;;;;;9.45;6.25;;;;;;;21.14;44.06;96372.28;10351794;28;20050;-73
2022/03/31 11:41:47;;;;;;;16.85;13.05;;;;;;;21.92;41.85;96371.63;10352106;28;20096;-73
2022/03/31 11:46:49;;;;;;;9.38;7.72;;;;;;;21.73;42.17;96364.50;10347467;28;20057;-72
2022/03/31 11:51:55;;;;;;;10.68;7.78;;;;;;;21.76;42.56;96367.13;10352568;28;20054;-72
2022/03/31 11:57:07;;;;;;;10.60;6.50;;;;;;;21.66;44.00;96359.28;10350944;28;20153;-73
2022/03/31 12:02:16;;;;;;;8.13;5.80;;;;;;;21.74;45.21;96361.31;10356004;28;20056;-73
2022/03/31 12:07:19;;;;;;;8.63;5.57;;;;;;;22.17;47.00;96357.13;10354874;28;20049;-68
2022/03/31 12:12:19;;;;;;;9.68;5.00;;;;;;;21.86;48.37;96349.59;10339159;28;20068;-73
2022/03/31 12:17:20;;;;;;;7.60;4.73;;;;;;;22.40;49.12;96353.91;10364567;28;20048;-72
2022/03/31 12:22:34;;;;;;;13.20;4.75;;;;;;;22.04;49.43;96342.75;10358313;28;20289;-71
2022/03/31 12:27:44;;;;;;;7.43;4.28;;;;;;;22.17;49.34;96346.19;10351623;28;20042;-70
2022/03/31 12:32:48;;;;;;;11.05;4.90;;;;;;;22.20;50.07;96339.06;10344285;28;20074;-74
2022/03/31 12:37:51;;;;;;;9.43;4.40;;;;;;;22.70;49.13;96343.41;10351792;28;20057;-73
2022/03/31 12:42:56;;;;;;;6.55;4.03;;;;;;;22.51;50.07;96348.03;10353893;28;20046;-72
2022/03/31 12:47:56;;;;;;;7.47;3.88;;;;;;;22.50;50.48;96345.75;10352005;28;20185;-73
2022/03/31 12:52:59;;;;;;;10.43;3.70;;;;;;;22.74;51.25;96337.78;10353264;28;20378;-75
2022/03/31 12:58:02;;;;;;;5.82;3.53;;;;;;;22.95;49.25;96339.69;10347203;28;20058;-76
2022/03/31 13:03:03;;;;;;;8.43;3.83;;;;;;;22.68;51.76;96332.16;10342229;28;20054;-73
2022/03/31 13:08:03;;;;;;;8.00;3.45;;;;;;;22.56;52.55;96339.25;10345027;28;20053;-73
2022/03/31 13:13:07;;;;;;;8.32;3.08;;;;;;;22.69;52.24;96328.22;10351527;28;20045;-73
2022/03/31 13:18:08;;;;;;;8.13;3.50;;;;;;;22.91;51.91;96330.88;10351874;28;20049;-73
2022/03/31 13:23:08;;;;;;;5.00;3.45;;;;;;;22.64;53.49;96326.06;10353188;28;20481;-73
2022/03/31 13:28:09;;;;;;;11.82;3.58;;;;;;;22.66;53.52;96327.13;10349645;28;20567;-83
2022/03/31 13:33:09;;;;;;;5.55;3.08;;;;;;;22.75;53.02;96320.94;10344164;28;20112;-74
2022/03/31 13:38:10;;;;;;;7.30;3.08;;;;;;;22.71;54.37;96323.81;10349191;28;20370;-76
2022/03/31 13:43:11;;;;;;;4.80;2.70;;;;;;;22.66;55.13;96318.91;10352930;28;20519;-73
2022/03/31 13:48:11;;;;;;;3.88;2.63;;;;;;;22.74;55.50;96321.38;10349930;28;20048;-72
2022/03/31 14:03:55;;;;;;;4.95;2.47;;;;;;;22.95;55.73;96285.78;10341827;28;20054;-74
2022/03/31 14:08:59;;;;;;;5.07;2.67;;;;;;;22.85;56.29;96292.41;10354324;28;20053;-74
2022/03/31 14:14:01;;;;;;;4.50;2.55;;;;;;;23.17;56.48;96284.88;10347471;28;20053;-74
2022/03/31 14:19:03;;;;;;;3.40;2.50;;;;;;;22.76;59.44;96288.88;10347837;28;20042;-69
2022/03/31 14:24:04;;;;;;;4.75;3.42;;;;;;;21.97;60.82;96293.81;10363869;28;20050;-71
2022/03/31 14:29:05;;;;;;;5.40;3.00;;;;;;;21.58;63.76;96293.28;10358918;28;20056;-69
2022/03/31 14:34:07;;;;;;;4.30;3.15;;;;;;;21.50;64.91;96281.84;10361382;28;20123;-68
2022/03/31 14:39:10;;;;;;;4.95;3.05;;;;;;;21.40;65.54;96277.50;10357752;28;20046;-68
2022/03/31 14:44:13;;;;;;;7.18;3.75;;;;;;;21.17;67.01;96269.69;10361748;28;20128;-68
2022/03/31 14:49:14;;;;;;;6.57;4.28;;;;;;;21.05;68.07;96281.41;10351972;28;20516;-68
2022/03/31 14:54:16;;;;;;;3.55;3.25;;;;;;;20.97;69.86;96275.44;10361881;28;20120;-68
2022/03/31 14:59:19;;;;;;;4.35;3.30;;;;;;;20.87;70.85;96271.09;10358305;28;20065;-68
2022/03/31 15:04:19;;;;;;;4.07;3.50;;;;;;;20.85;71.01;96265.31;10351844;28;20042;-68
2022/03/31 15:14:39;;;;;;;5.03;3.38;;;;;;;20.80;71.24;96263.91;10362726;28;20050;-71
2022/03/31 15:19:39;;;;;;;3.67;3.03;;;;;;;20.65;71.05;96257.38;10354526;28;20054;-75
2022/03/31 15:24:41;;;;;;;4.82;3.55;;;;;;;20.62;70.84;96256.28;10360070;28;20054;-74
2022/03/31 15:29:41;;;;;;;4.05;3.10;;;;;;;20.58;70.66;96254.91;10357581;28;20045;-69
2022/03/31 15:34:42;;;;;;;4.53;3.10;;;;;;;20.55;70.80;96258.47;10369558;28;20041;-67
2022/03/31 15:39:42;;;;;;;6.57;3.05;;;;;;;20.56;70.56;96251.81;10362807;28;20060;-69
2022/03/31 15:44:46;;;;;;;3.25;2.60;;;;;;;20.53;70.68;96255.44;10363887;28;20054;-69
2022/03/31 15:49:47;;;;;;;4.50;2.92;;;;;;;20.50;70.95;96248.16;10362296;28;20046;-70
2022/03/31 15:54:47;;;;;;;3.28;2.88;;;;;;;20.51;70.71;96249.66;10369963;28;20058;-67
2022/03/31 15:59:48;;;;;;;5.18;3.45;;;;;;;20.54;70.59;96255.00;10364950;28;20049;-69
2022/03/31 16:04:48;;;;;;;3.75;2.97;;;;;;;20.53;70.15;96241.81;10367765;28;20069;-68
2022/03/31 16:09:49;;;;;;;3.15;2.83;;;;;;;20.50;70.26;96248.16;10360721;28;20480;-68
2022/03/31 16:14:50;;;;;;;4.18;2.75;;;;;;;20.48;70.67;96245.84;10371062;28;20076;-68
2022/03/31 16:19:51;;;;;;;3.85;2.83;;;;;;;20.48;70.49;96255.97;10366926;28;20054;-67
2022/03/31 16:24:52;;;;;;;4.88;2.97;;;;;;;20.48;70.72;96259.47;10376572;28;20085;-70
2022/03/31 16:29:53;;;;;;;4.95;2.63;;;;;;;20.45;70.44;96252.94;10374242;28;20624;-71
2022/03/31 16:34:54;;;;;;;4.30;2.90;;;;;;;20.43;70.54;96265.47;10370426;28;20054;-70
2022/03/31 16:39:54;;;;;;;3.83;2.53;;;;;;;20.37;70.90;96262.50;10366025;28;20393;-68
2022/03/31 16:44:55;;;;;;;5.83;3.00;;;;;;;20.46;70.11;96264.59;10369330;28;20042;-68
2022/03/31 16:49:55;;;;;;;5.10;2.60;;;;;;;20.47;70.23;96271.56;10368288;28;20300;-68
2022/03/31 16:54:56;;;;;;;3.50;2.53;;;;;;;20.48;69.93;96273.09;10360538;28;20188;-68
2022/03/31 16:59:57;;;;;;;6.60;2.70;;;;;;;20.50;69.24;96272.66;10361542;28;20054;-69
2022/03/31 17:04:58;;;;;;;3.13;2.47;;;;;;;20.45;69.70;96277.44;10368452;28;20068;-67
2022/03/31 17:09:59;;;;;;;6.45;2.95;;;;;;;20.45;69.79;96276.69;10371145;28;20049;-68
2022/03/31 17:15:00;;;;;;;5.13;2.97;;;;;;;20.44;71.14;96275.16;10364212;28;20056;-69
2022/03/31 17:20:01;;;;;;;6.90;2.92;;;;;;;20.43;71.21;96279.09;10363939;28;20043;-67
2022/03/31 17:25:02;;;;;;;4.75;2.70;;;;;;;20.40;72.20;96279.94;10373897;28;20045;-70
2022/03/31 17:30:03;;;;;;;4.55;2.92;;;;;;;20.39;71.82;96276.47;10366022;28;20053;-70
2022/03/31 17:35:05;;;;;;;5.72;3.03;;;;;;;20.39;72.47;96272.94;10372278;28;20057;-70
2022/03/31 17:40:06;;;;;;;5.63;2.78;;;;;;;20.37;73.12;96280.81;10359906;28;20053;-70
2022/03/31 17:45:08;;;;;;;4.05;2.60;;;;;;;20.36;73.55;96290.19;10358596;28;20080;-67
2022/03/31 17:50:11;;;;;;;4.63;2.50;;;;;;;20.34;73.75;96281.69;10367442;28;20046;-67
2022/03/31 17:55:12;;;;;;;4.25;2.40;;;;;;;20.34;74.84;96281.69;10371302;28;20058;-68
2022/03/31 18:00:17;;;;;;;5.28;2.60;;;;;;;20.33;73.66;96278.19;10359650;28;20050;-70
2022/03/31 18:05:21;;;;;;;7.68;2.92;;;;;;;20.31;74.36;96291.50;10350598;28;20421;-68
2022/03/31 18:10:23;;;;;;;4.07;2.60;;;;;;;20.31;74.43;96294.22;10352874;28;20136;-70
2022/03/31 18:15:24;;;;;;;7.18;2.90;;;;;;;20.31;75.10;96296.94;10362537;28;20135;-70
2022/03/31 18:20:26;;;;;;;8.48;2.67;;;;;;;20.31;74.92;96290.72;10366969;28;20046;-69
2022/03/31 18:25:27;;;;;;;5.97;2.40;;;;;;;20.30;75.15;96300.88;10366191;28;20069;-67
2022/03/31 18:35:48;;;;;;;7.00;2.35;;;;;;;20.31;75.78;96312.53;10358752;28;20449;-68
2022/03/31 18:40:51;;;;;;;6.68;2.60;;;;;;;20.28;76.06;96305.97;10364571;28;20041;-68
2022/03/31 18:45:52;;;;;;;4.22;2.65;;;;;;;20.25;75.63;96311.53;10360577;28;20050;-67
2022/03/31 18:50:53;;;;;;;3.72;2.80;;;;;;;20.26;75.63;96315.78;10358746;28;20058;-68
2022/03/31 18:55:57;;;;;;;3.70;2.55;;;;;;;20.26;75.94;96319.28;10354532;28;20065;-69
2022/03/31 19:00:58;;;;;;;5.85;2.85;;;;;;;20.25;75.99;96319.72;10359785;28;20489;-66
2022/03/31 19:06:57;;;;;;;4.97;2.60;;;;;;;20.24;76.44;96334.53;10364319;28;20053;-67
2022/03/31 19:11:19;;;;;;;6.22;2.75;;;;;;;20.23;76.02;96335.72;10354396;28;20422;-67
2022/03/31 19:16:22;;;;;;;8.05;2.85;;;;;;;20.22;76.00;96334.97;10364477;28;20050;-69
2022/03/31 19:21:24;;;;;;;6.22;2.33;;;;;;;20.21;76.47;96338.91;10366560;28;20076;-69
2022/03/31 19:26:24;;;;;;;5.22;3.03;;;;;;;20.29;77.99;96345.63;10363858;28;20128;-76
2022/03/31 19:31:25;;;;;;;3.63;2.30;;;;;;;20.66;79.01;96344.16;10349309;28;20401;-75
2022/03/31 19:36:25;;;;;;;4.55;2.63;;;;;;;21.17;73.79;96343.34;10355055;28;20057;-75
2022/03/31 19:41:26;;;;;;;15.43;2.92;;;;;;;21.50;71.35;96344.63;10352761;28;20050;-77
2022/03/31 19:46:27;;;;;;;2.92;2.05;;;;;;;21.84;67.72;96356.69;10355114;28;20121;-74
2022/03/31 19:51:27;;;;;;;4.88;2.67;;;;;;;22.07;66.55;96355.53;10359051;28;20050;-73
2022/03/31 19:56:30;;;;;;;3.50;2.30;;;;;;;22.28;64.76;96354.75;10345151;28;20077;-73
2022/03/31 20:01:31;;;;;;;6.03;2.45;;;;;;;22.43;64.29;96355.75;10358611;28;20050;-74
2022/03/31 20:06:32;;;;;;;5.07;2.65;;;;;;;22.54;63.99;96355.34;10351811;28;20084;-74
2022/03/31 20:11:33;;;;;;;4.13;2.13;;;;;;;22.63;63.59;96355.38;10351003;28;20058;-75
2022/03/31 20:16:34;;;;;;;2.80;2.00;;;;;;;22.83;62.26;96359.72;10354238;28;20050;-72
